sensor_id;sensor_type;location;lat;lon;timestamp;P1;durP1;ratioP1;P2;durP2;ratioP2
44516;SDS011;30223;17.182;-96.766;2022-07-23T00:00:05;9.80;;;4.97;;
44516;SDS011;30223;17.182;-96.766;2022-07-23T00:02:33;9.10;;;4.35;;
44516;SDS011;30223;17.182;-96.766;2022-07-23T00:05:00;9.23;;;4.15;;
44516;SDS011;30223;17.182;-96.766;2022-07-23T00:07:26;16.13;;;6.25;;
44516;SDS011;30223;17.182;-96.766;2022-07-23T00:09:53;14.20;;;4.78;;
44516;SDS011;30223;17.182;-96.766;2022-07-23T00:12:20;15.88;;;6.07;;
44516;SDS011;30223;17.182;-96.766;2022-07-23T00:14:47;16.25;;;6.13;;
44516;SDS011;30223;17.182;-96.766;2022-07-23T00:17:13;8.15;;;4.50;;
44516;SDS011;30223;17.182;-96.766;2022-07-23T00:19:40;7.72;;;4.20;;
44516;SDS011;30223;17.182;-96.766;2022-07-23T00:22:07;10.15;;;5.05;;
44516;SDS011;30223;17.182;-96.766;2022-07-23T00:24:33;8.00;;;4.95;;
44516;SDS011;30223;17.182;-96.766;2022-07-23T00:27:00;6.10;;;4.60;;
44516;SDS011;30223;17.182;-96.766;2022-07-23T00:29:26;8.68;;;4.45;;
44516;SDS011;30223;17.182;-96.766;2022-07-23T00:31:53;11.38;;;4.20;;
44516;SDS011;30223;17.182;-96.766;2022-07-23T00:34:20;16.00;;;4.22;;
44516;SDS011;30223;17.182;-96.766;2022-07-23T00:36:46;8.40;;;4.32;;
44516;SDS011;30223;17.182;-96.766;2022-07-23T00:39:13;9.65;;;4.85;;
44516;SDS011;30223;17.182;-96.766;2022-07-23T00:41:39;9.25;;;4.50;;
44516;SDS011;30223;17.182;-96.766;2022-07-23T00:46:48;7.65;;;4.00;;
44516;SDS011;30223;17.182;-96.766;2022-07-23T00:49:26;10.10;;;4.70;;
44516;SDS011;30223;17.182;-96.766;2022-07-23T00:51:55;12.88;;;4.63;;
44516;SDS011;30223;17.182;-96.766;2022-07-23T00:54:23;6.57;;;4.28;;
44516;SDS011;30223;17.182;-96.766;2022-07-23T00:56:51;9.73;;;4.13;;
44516;SDS011;30223;17.182;-96.766;2022-07-23T00:59:17;12.10;;;4.25;;
44516;SDS011;30223;17.182;-96.766;2022-07-23T01:01:44;9.77;;;4.70;;
44516;SDS011;30223;17.182;-96.766;2022-07-23T01:04:14;7.47;;;4.65;;
44516;SDS011;30223;17.182;-96.766;2022-07-23T01:06:41;8.50;;;4.72;;
44516;SDS011;30223;17.182;-96.766;2022-07-23T01:09:10;9.25;;;6.65;;
44516;SDS011;30223;17.182;-96.766;2022-07-23T01:11:37;6.32;;;4.70;;
44516;SDS011;30223;17.182;-96.766;2022-07-23T01:14:08;7.22;;;4.78;;
44516;SDS011;30223;17.182;-96.766;2022-07-23T01:16:36;18.70;;;4.85;;
44516;SDS011;30223;17.182;-96.766;2022-07-23T01:19:02;7.40;;;4.40;;
44516;SDS011;30223;17.182;-96.766;2022-07-23T01:24:02;9.30;;;4.00;;
44516;SDS011;30223;17.182;-96.766;2022-07-23T01:26:29;6.05;;;4.65;;
44516;SDS011;30223;17.182;-96.766;2022-07-23T01:28:56;14.10;;;6.00;;
44516;SDS011;30223;17.182;-96.766;2022-07-23T01:31:23;6.65;;;3.80;;
44516;SDS011;30223;17.182;-96.766;2022-07-23T01:33:49;11.52;;;3.95;;
44516;SDS011;30223;17.182;-96.766;2022-07-23T01:36:16;6.40;;;3.05;;
44516;SDS011;30223;17.182;-96.766;2022-07-23T01:38:43;8.13;;;3.05;;
44516;SDS011;30223;17.182;-96.766;2022-07-23T01:41:09;3.83;;;2.85;;
44516;SDS011;30223;17.182;-96.766;2022-07-23T01:43:36;5.30;;;3.65;;
44516;SDS011;30223;17.182;-96.766;2022-07-23T01:46:03;4.20;;;3.17;;
44516;SDS011;30223;17.182;-96.766;2022-07-23T01:48:29;6.30;;;3.30;;
44516;SDS011;30223;17.182;-96.766;2022-07-23T01:50:56;5.53;;;3.10;;
44516;SDS011;30223;17.182;-96.766;2022-07-23T01:53:24;7.55;;;2.80;;
44516;SDS011;30223;17.182;-96.766;2022-07-23T01:55:51;4.70;;;2.95;;
44516;SDS011;30223;17.182;-96.766;2022-07-23T01:58:18;5.57;;;2.95;;
44516;SDS011;30223;17.182;-96.766;2022-07-23T02:00:44;4.82;;;3.33;;
44516;SDS011;30223;17.182;-96.766;2022-07-23T02:03:11;8.63;;;3.88;;
44516;SDS011;30223;17.182;-96.766;2022-07-23T02:05:37;7.68;;;3.90;;
44516;SDS011;30223;17.182;-96.766;2022-07-23T02:08:04;7.68;;;3.22;;
44516;SDS011;30223;17.182;-96.766;2022-07-23T02:10:30;7.55;;;3.63;;
44516;SDS011;30223;17.182;-96.766;2022-07-23T02:12:57;10.10;;;4.25;;
44516;SDS011;30223;17.182;-96.766;2022-07-23T02:15:24;5.88;;;3.40;;
44516;SDS011;30223;17.182;-96.766;2022-07-23T02:17:50;6.90;;;3.65;;
44516;SDS011;30223;17.182;-96.766;2022-07-23T02:20:17;13.23;;;3.22;;
44516;SDS011;30223;17.182;-96.766;2022-07-23T02:22:44;4.90;;;2.95;;
44516;SDS011;30223;17.182;-96.766;2022-07-23T02:25:10;5.38;;;3.38;;
44516;SDS011;30223;17.182;-96.766;2022-07-23T02:27:37;6.72;;;4.20;;
44516;SDS011;30223;17.182;-96.766;2022-07-23T02:30:04;6.85;;;2.92;;
44516;SDS011;30223;17.182;-96.766;2022-07-23T02:32:31;8.00;;;2.90;;
44516;SDS011;30223;17.182;-96.766;2022-07-23T02:34:58;5.50;;;4.53;;
44516;SDS011;30223;17.182;-96.766;2022-07-23T02:37:24;4.60;;;2.72;;
44516;SDS011;30223;17.182;-96.766;2022-07-23T02:39:52;4.13;;;3.10;;
44516;SDS011;30223;17.182;-96.766;2022-07-23T02:42:18;5.53;;;3.13;;
44516;SDS011;30223;17.182;-96.766;2022-07-23T02:44:45;5.72;;;3.05;;
44516;SDS011;30223;17.182;-96.766;2022-07-23T02:47:12;5.43;;;2.38;;
44516;SDS011;30223;17.182;-96.766;2022-07-23T02:49:39;3.40;;;2.47;;
44516;SDS011;30223;17.182;-96.766;2022-07-23T02:52:05;6.60;;;2.40;;
44516;SDS011;30223;17.182;-96.766;2022-07-23T02:54:32;5.10;;;2.83;;
44516;SDS011;30223;17.182;-96.766;2022-07-23T02:56:58;3.58;;;2.55;;
44516;SDS011;30223;17.182;-96.766;2022-07-23T02:59:25;7.13;;;2.40;;
44516;SDS011;30223;17.182;-96.766;2022-07-23T03:01:52;5.47;;;2.20;;
44516;SDS011;30223;17.182;-96.766;2022-07-23T03:04:18;4.30;;;3.05;;
44516;SDS011;30223;17.182;-96.766;2022-07-23T03:06:45;6.70;;;2.63;;
44516;SDS011;30223;17.182;-96.766;2022-07-23T03:09:11;8.57;;;3.17;;
44516;SDS011;30223;17.182;-96.766;2022-07-23T03:11:38;5.88;;;2.60;;
44516;SDS011;30223;17.182;-96.766;2022-07-23T03:14:05;5.00;;;3.08;;
44516;SDS011;30223;17.182;-96.766;2022-07-23T03:16:32;5.68;;;2.72;;
44516;SDS011;30223;17.182;-96.766;2022-07-23T03:18:59;8.93;;;2.58;;
44516;SDS011;30223;17.182;-96.766;2022-07-23T03:21:26;3.60;;;2.15;;
44516;SDS011;30223;17.182;-96.766;2022-07-23T03:23:53;2.83;;;2.30;;
44516;SDS011;30223;17.182;-96.766;2022-07-23T03:26:19;2.40;;;2.03;;
44516;SDS011;30223;17.182;-96.766;2022-07-23T03:28:50;3.08;;;1.77;;
44516;SDS011;30223;17.182;-96.766;2022-07-23T03:31:17;4.30;;;2.00;;
44516;SDS011;30223;17.182;-96.766;2022-07-23T03:33:44;4.05;;;2.33;;
44516;SDS011;30223;17.182;-96.766;2022-07-23T03:36:11;2.05;;;1.40;;
44516;SDS011;30223;17.182;-96.766;2022-07-23T03:38:37;2.75;;;1.73;;
44516;SDS011;30223;17.182;-96.766;2022-07-23T03:41:04;5.57;;;3.05;;
44516;SDS011;30223;17.182;-96.766;2022-07-23T03:43:31;5.75;;;1.95;;
44516;SDS011;30223;17.182;-96.766;2022-07-23T03:45:57;5.63;;;2.40;;
44516;SDS011;30223;17.182;-96.766;2022-07-23T03:48:24;4.40;;;2.75;;
44516;SDS011;30223;17.182;-96.766;2022-07-23T03:50:50;5.93;;;2.88;;
44516;SDS011;30223;17.182;-96.766;2022-07-23T03:53:17;4.45;;;3.05;;
44516;SDS011;30223;17.182;-96.766;2022-07-23T03:55:44;8.95;;;3.25;;
44516;SDS011;30223;17.182;-96.766;2022-07-23T03:58:10;6.05;;;4.30;;
44516;SDS011;30223;17.182;-96.766;2022-07-23T04:00:37;15.32;;;3.95;;
44516;SDS011;30223;17.182;-96.766;2022-07-23T04:03:03;6.93;;;5.05;;
44516;SDS011;30223;17.182;-96.766;2022-07-23T04:05:30;9.35;;;4.53;;
44516;SDS011;30223;17.182;-96.766;2022-07-23T04:07:56;9.18;;;4.15;;
44516;SDS011;30223;17.182;-96.766;2022-07-23T04:10:23;9.77;;;4.75;;
44516;SDS011;30223;17.182;-96.766;2022-07-23T04:12:50;7.97;;;4.40;;
44516;SDS011;30223;17.182;-96.766;2022-07-23T04:15:16;8.20;;;4.03;;
44516;SDS011;30223;17.182;-96.766;2022-07-23T04:17:43;8.43;;;3.92;;
44516;SDS011;30223;17.182;-96.766;2022-07-23T04:20:11;7.35;;;4.00;;
44516;SDS011;30223;17.182;-96.766;2022-07-23T04:22:38;7.40;;;4.88;;
44516;SDS011;30223;17.182;-96.766;2022-07-23T04:25:05;6.28;;;3.80;;
44516;SDS011;30223;17.182;-96.766;2022-07-23T04:27:32;7.45;;;4.18;;
44516;SDS011;30223;17.182;-96.766;2022-07-23T04:29:59;7.75;;;4.20;;
44516;SDS011;30223;17.182;-96.766;2022-07-23T04:32:25;5.90;;;4.07;;
44516;SDS011;30223;17.182;-96.766;2022-07-23T04:34:52;6.90;;;4.65;;
44516;SDS011;30223;17.182;-96.766;2022-07-23T04:37:18;9.68;;;5.00;;
44516;SDS011;30223;17.182;-96.766;2022-07-23T04:39:45;12.13;;;4.05;;
44516;SDS011;30223;17.182;-96.766;2022-07-23T04:42:12;5.95;;;4.03;;
44516;SDS011;30223;17.182;-96.766;2022-07-23T04:44:38;6.13;;;4.15;;
44516;SDS011;30223;17.182;-96.766;2022-07-23T04:47:05;7.03;;;4.22;;
44516;SDS011;30223;17.182;-96.766;2022-07-23T04:49:31;7.28;;;4.03;;
44516;SDS011;30223;17.182;-96.766;2022-07-23T04:51:58;10.90;;;5.07;;
44516;SDS011;30223;17.182;-96.766;2022-07-23T04:54:24;6.78;;;4.65;;
44516;SDS011;30223;17.182;-96.766;2022-07-23T04:56:51;4.18;;;3.55;;
44516;SDS011;30223;17.182;-96.766;2022-07-23T04:59:18;6.82;;;4.03;;
44516;SDS011;30223;17.182;-96.766;2022-07-23T05:01:45;5.45;;;3.83;;
44516;SDS011;30223;17.182;-96.766;2022-07-23T05:04:11;8.70;;;3.53;;
44516;SDS011;30223;17.182;-96.766;2022-07-23T05:06:38;8.75;;;3.92;;
44516;SDS011;30223;17.182;-96.766;2022-07-23T05:09:04;6.95;;;4.53;;
44516;SDS011;30223;17.182;-96.766;2022-07-23T05:11:31;8.07;;;4.78;;
44516;SDS011;30223;17.182;-96.766;2022-07-23T05:13:57;9.52;;;4.75;;
44516;SDS011;30223;17.182;-96.766;2022-07-23T05:16:24;5.25;;;4.05;;
44516;SDS011;30223;17.182;-96.766;2022-07-23T05:18:51;7.05;;;4.78;;
44516;SDS011;30223;17.182;-96.766;2022-07-23T05:21:18;9.50;;;5.07;;
44516;SDS011;30223;17.182;-96.766;2022-07-23T05:23:44;7.32;;;4.60;;
44516;SDS011;30223;17.182;-96.766;2022-07-23T05:26:11;5.00;;;3.45;;
44516;SDS011;30223;17.182;-96.766;2022-07-23T05:28:38;8.43;;;4.40;;
44516;SDS011;30223;17.182;-96.766;2022-07-23T05:31:04;6.00;;;3.92;;
44516;SDS011;30223;17.182;-96.766;2022-07-23T05:33:31;6.30;;;4.00;;
44516;SDS011;30223;17.182;-96.766;2022-07-23T05:36:01;9.52;;;4.70;;
44516;SDS011;30223;17.182;-96.766;2022-07-23T05:38:28;10.20;;;4.72;;
44516;SDS011;30223;17.182;-96.766;2022-07-23T05:40:56;8.55;;;4.40;;
44516;SDS011;30223;17.182;-96.766;2022-07-23T05:43:22;6.30;;;3.70;;
44516;SDS011;30223;17.182;-96.766;2022-07-23T05:45:49;6.90;;;3.72;;
44516;SDS011;30223;17.182;-96.766;2022-07-23T05:48:16;5.32;;;3.92;;
44516;SDS011;30223;17.182;-96.766;2022-07-23T05:50:43;6.55;;;3.45;;
44516;SDS011;30223;17.182;-96.766;2022-07-23T05:53:09;5.55;;;3.00;;
44516;SDS011;30223;17.182;-96.766;2022-07-23T05:55:36;3.95;;;3.35;;
44516;SDS011;30223;17.182;-96.766;2022-07-23T05:58:02;4.07;;;3.70;;
44516;SDS011;30223;17.182;-96.766;2022-07-23T06:00:29;5.88;;;3.55;;
44516;SDS011;30223;17.182;-96.766;2022-07-23T06:02:56;8.27;;;3.55;;
44516;SDS011;30223;17.182;-96.766;2022-07-23T06:05:23;5.57;;;4.20;;
44516;SDS011;30223;17.182;-96.766;2022-07-23T06:07:50;6.78;;;4.05;;
44516;SDS011;30223;17.182;-96.766;2022-07-23T06:10:16;6.82;;;3.75;;
44516;SDS011;30223;17.182;-96.766;2022-07-23T06:12:43;7.47;;;3.17;;
44516;SDS011;30223;17.182;-96.766;2022-07-23T06:15:10;7.88;;;3.58;;
44516;SDS011;30223;17.182;-96.766;2022-07-23T06:17:37;7.53;;;4.07;;
44516;SDS011;30223;17.182;-96.766;2022-07-23T06:20:08;8.73;;;4.28;;
44516;SDS011;30223;17.182;-96.766;2022-07-23T06:22:35;12.27;;;4.00;;
44516;SDS011;30223;17.182;-96.766;2022-07-23T06:25:02;6.32;;;3.83;;
44516;SDS011;30223;17.182;-96.766;2022-07-23T06:27:29;8.25;;;5.45;;
44516;SDS011;30223;17.182;-96.766;2022-07-23T06:29:56;10.15;;;4.68;;
44516;SDS011;30223;17.182;-96.766;2022-07-23T06:32:22;8.02;;;4.45;;
44516;SDS011;30223;17.182;-96.766;2022-07-23T06:34:49;8.35;;;4.10;;
44516;SDS011;30223;17.182;-96.766;2022-07-23T06:37:16;7.65;;;4.60;;
44516;SDS011;30223;17.182;-96.766;2022-07-23T06:39:42;7.05;;;5.10;;
44516;SDS011;30223;17.182;-96.766;2022-07-23T06:42:09;10.63;;;4.93;;
44516;SDS011;30223;17.182;-96.766;2022-07-23T06:44:37;9.35;;;4.25;;
44516;SDS011;30223;17.182;-96.766;2022-07-23T06:47:03;7.85;;;3.80;;
44516;SDS011;30223;17.182;-96.766;2022-07-23T06:49:30;10.40;;;4.18;;
44516;SDS011;30223;17.182;-96.766;2022-07-23T06:51:57;11.95;;;4.43;;
44516;SDS011;30223;17.182;-96.766;2022-07-23T06:54:23;8.98;;;3.63;;
44516;SDS011;30223;17.182;-96.766;2022-07-23T06:56:50;8.68;;;4.47;;
44516;SDS011;30223;17.182;-96.766;2022-07-23T06:59:17;5.78;;;4.47;;
44516;SDS011;30223;17.182;-96.766;2022-07-23T07:01:43;6.03;;;3.13;;
44516;SDS011;30223;17.182;-96.766;2022-07-23T07:04:10;7.22;;;3.22;;
44516;SDS011;30223;17.182;-96.766;2022-07-23T07:06:36;6.50;;;3.38;;
44516;SDS011;30223;17.182;-96.766;2022-07-23T07:09:03;8.98;;;2.92;;
44516;SDS011;30223;17.182;-96.766;2022-07-23T07:11:29;7.88;;;2.95;;
44516;SDS011;30223;17.182;-96.766;2022-07-23T07:13:56;9.32;;;3.45;;
44516;SDS011;30223;17.182;-96.766;2022-07-23T07:16:23;4.78;;;2.65;;
44516;SDS011;30223;17.182;-96.766;2022-07-23T07:18:50;8.60;;;2.88;;
44516;SDS011;30223;17.182;-96.766;2022-07-23T07:21:16;5.90;;;2.80;;
44516;SDS011;30223;17.182;-96.766;2022-07-23T07:23:43;6.55;;;3.00;;
44516;SDS011;30223;17.182;-96.766;2022-07-23T07:26:10;5.93;;;4.05;;
44516;SDS011;30223;17.182;-96.766;2022-07-23T07:28:36;6.78;;;3.83;;
44516;SDS011;30223;17.182;-96.766;2022-07-23T07:31:03;7.82;;;2.75;;
44516;SDS011;30223;17.182;-96.766;2022-07-23T07:33:30;5.43;;;2.85;;
44516;SDS011;30223;17.182;-96.766;2022-07-23T07:35:56;5.20;;;3.17;;
44516;SDS011;30223;17.182;-96.766;2022-07-23T07:38:23;4.53;;;2.90;;
44516;SDS011;30223;17.182;-96.766;2022-07-23T07:40:50;3.97;;;3.17;;
44516;SDS011;30223;17.182;-96.766;2022-07-23T07:43:17;9.05;;;3.13;;
44516;SDS011;30223;17.182;-96.766;2022-07-23T07:45:43;5.00;;;3.40;;
44516;SDS011;30223;17.182;-96.766;2022-07-23T07:48:10;3.63;;;2.67;;
44516;SDS011;30223;17.182;-96.766;2022-07-23T07:50:36;5.28;;;3.17;;
44516;SDS011;30223;17.182;-96.766;2022-07-23T07:53:03;7.13;;;3.10;;
44516;SDS011;30223;17.182;-96.766;2022-07-23T07:55:30;3.75;;;2.60;;
44516;SDS011;30223;17.182;-96.766;2022-07-23T07:57:56;3.58;;;3.17;;
44516;SDS011;30223;17.182;-96.766;2022-07-23T08:00:23;8.48;;;2.75;;
44516;SDS011;30223;17.182;-96.766;2022-07-23T08:02:50;4.20;;;3.53;;
44516;SDS011;30223;17.182;-96.766;2022-07-23T08:05:19;5.97;;;2.97;;
44516;SDS011;30223;17.182;-96.766;2022-07-23T08:10:14;5.68;;;3.05;;
44516;SDS011;30223;17.182;-96.766;2022-07-23T08:12:45;5.80;;;2.72;;
44516;SDS011;30223;17.182;-96.766;2022-07-23T08:15:14;7.82;;;2.83;;
44516;SDS011;30223;17.182;-96.766;2022-07-23T08:17:42;3.47;;;2.35;;
44516;SDS011;30223;17.182;-96.766;2022-07-23T08:20:10;7.93;;;3.17;;
44516;SDS011;30223;17.182;-96.766;2022-07-23T08:22:42;3.63;;;3.05;;
44516;SDS011;30223;17.182;-96.766;2022-07-23T08:25:12;5.47;;;2.92;;
44516;SDS011;30223;17.182;-96.766;2022-07-23T08:27:39;5.68;;;3.00;;
44516;SDS011;30223;17.182;-96.766;2022-07-23T08:30:06;4.72;;;2.70;;
44516;SDS011;30223;17.182;-96.766;2022-07-23T08:32:33;7.95;;;3.55;;
44516;SDS011;30223;17.182;-96.766;2022-07-23T08:35:13;5.95;;;3.55;;
44516;SDS011;30223;17.182;-96.766;2022-07-23T08:37:39;5.03;;;3.30;;
44516;SDS011;30223;17.182;-96.766;2022-07-23T08:40:06;10.65;;;3.33;;
44516;SDS011;30223;17.182;-96.766;2022-07-23T08:42:33;12.77;;;3.25;;
44516;SDS011;30223;17.182;-96.766;2022-07-23T08:45:01;4.20;;;3.03;;
44516;SDS011;30223;17.182;-96.766;2022-07-23T08:47:29;3.58;;;2.80;;
44516;SDS011;30223;17.182;-96.766;2022-07-23T08:49:57;7.15;;;2.83;;
44516;SDS011;30223;17.182;-96.766;2022-07-23T08:52:24;5.97;;;3.10;;
44516;SDS011;30223;17.182;-96.766;2022-07-23T08:54:51;7.35;;;3.58;;
44516;SDS011;30223;17.182;-96.766;2022-07-23T08:57:19;6.00;;;2.95;;
44516;SDS011;30223;17.182;-96.766;2022-07-23T08:59:46;6.22;;;4.15;;
44516;SDS011;30223;17.182;-96.766;2022-07-23T09:02:12;8.07;;;4.07;;
44516;SDS011;30223;17.182;-96.766;2022-07-23T09:04:39;4.90;;;2.92;;
44516;SDS011;30223;17.182;-96.766;2022-07-23T09:07:06;5.38;;;2.97;;
44516;SDS011;30223;17.182;-96.766;2022-07-23T09:09:32;6.35;;;3.13;;
44516;SDS011;30223;17.182;-96.766;2022-07-23T09:12:06;3.38;;;2.70;;
44516;SDS011;30223;17.182;-96.766;2022-07-23T09:14:42;4.00;;;3.15;;
44516;SDS011;30223;17.182;-96.766;2022-07-23T09:17:12;12.77;;;3.08;;
44516;SDS011;30223;17.182;-96.766;2022-07-23T09:19:41;3.83;;;2.88;;
44516;SDS011;30223;17.182;-96.766;2022-07-23T09:22:18;5.07;;;2.50;;
44516;SDS011;30223;17.182;-96.766;2022-07-23T09:30:15;5.35;;;2.70;;
44516;SDS011;30223;17.182;-96.766;2022-07-23T09:32:42;8.27;;;3.30;;
44516;SDS011;30223;17.182;-96.766;2022-07-23T09:35:09;6.10;;;3.03;;
44516;SDS011;30223;17.182;-96.766;2022-07-23T09:37:36;6.95;;;3.22;;
44516;SDS011;30223;17.182;-96.766;2022-07-23T09:40:06;5.80;;;3.28;;
44516;SDS011;30223;17.182;-96.766;2022-07-23T09:42:38;4.38;;;2.97;;
44516;SDS011;30223;17.182;-96.766;2022-07-23T09:45:06;5.50;;;3.28;;
44516;SDS011;30223;17.182;-96.766;2022-07-23T09:47:37;6.82;;;2.95;;
44516;SDS011;30223;17.182;-96.766;2022-07-23T09:50:05;5.15;;;2.75;;
44516;SDS011;30223;17.182;-96.766;2022-07-23T09:55:07;5.43;;;3.53;;
44516;SDS011;30223;17.182;-96.766;2022-07-23T09:57:34;7.20;;;2.70;;
44516;SDS011;30223;17.182;-96.766;2022-07-23T10:00:03;3.80;;;2.40;;
44516;SDS011;30223;17.182;-96.766;2022-07-23T10:02:32;3.45;;;2.60;;
44516;SDS011;30223;17.182;-96.766;2022-07-23T10:04:59;5.03;;;3.17;;
44516;SDS011;30223;17.182;-96.766;2022-07-23T10:07:27;5.30;;;3.53;;
44516;SDS011;30223;17.182;-96.766;2022-07-23T10:10:03;10.98;;;2.80;;
44516;SDS011;30223;17.182;-96.766;2022-07-23T10:12:30;4.57;;;3.23;;
44516;SDS011;30223;17.182;-96.766;2022-07-23T10:15:25;6.13;;;3.03;;
44516;SDS011;30223;17.182;-96.766;2022-07-23T10:17:52;5.93;;;3.30;;
44516;SDS011;30223;17.182;-96.766;2022-07-23T10:20:19;5.45;;;3.83;;
44516;SDS011;30223;17.182;-96.766;2022-07-23T10:25:50;6.05;;;2.78;;
44516;SDS011;30223;17.182;-96.766;2022-07-23T10:31:26;5.13;;;3.03;;
44516;SDS011;30223;17.182;-96.766;2022-07-23T10:37:00;5.70;;;3.63;;
44516;SDS011;30223;17.182;-96.766;2022-07-23T10:39:46;4.55;;;2.78;;
44516;SDS011;30223;17.182;-96.766;2022-07-23T10:42:14;4.45;;;3.03;;
44516;SDS011;30223;17.182;-96.766;2022-07-23T10:44:45;6.75;;;3.85;;
44516;SDS011;30223;17.182;-96.766;2022-07-23T10:47:26;9.15;;;3.30;;
44516;SDS011;30223;17.182;-96.766;2022-07-23T10:50:27;5.05;;;2.92;;
44516;SDS011;30223;17.182;-96.766;2022-07-23T10:58:02;5.57;;;2.50;;
44516;SDS011;30223;17.182;-96.766;2022-07-23T11:00:30;7.07;;;2.55;;
44516;SDS011;30223;17.182;-96.766;2022-07-23T11:02:59;4.30;;;2.73;;
44516;SDS011;30223;17.182;-96.766;2022-07-23T11:05:48;4.80;;;3.90;;
44516;SDS011;30223;17.182;-96.766;2022-07-23T11:08:20;3.80;;;2.53;;
44516;SDS011;30223;17.182;-96.766;2022-07-23T11:10:47;6.05;;;3.38;;
44516;SDS011;30223;17.182;-96.766;2022-07-23T11:13:30;10.00;;;3.92;;
44516;SDS011;30223;17.182;-96.766;2022-07-23T11:26:43;6.80;;;3.03;;
44516;SDS011;30223;17.182;-96.766;2022-07-23T11:32:07;6.30;;;3.35;;
44516;SDS011;30223;17.182;-96.766;2022-07-23T11:34:46;8.05;;;3.85;;
44516;SDS011;30223;17.182;-96.766;2022-07-23T11:40:00;8.90;;;4.25;;
44516;SDS011;30223;17.182;-96.766;2022-07-23T11:44:55;6.18;;;3.60;;
44516;SDS011;30223;17.182;-96.766;2022-07-23T11:47:23;8.32;;;3.42;;
44516;SDS011;30223;17.182;-96.766;2022-07-23T11:49:52;6.18;;;2.72;;
44516;SDS011;30223;17.182;-96.766;2022-07-23T11:52:24;6.07;;;4.70;;
44516;SDS011;30223;17.182;-96.766;2022-07-23T11:54:52;5.75;;;3.97;;
44516;SDS011;30223;17.182;-96.766;2022-07-23T11:59:51;4.55;;;3.13;;
44516;SDS011;30223;17.182;-96.766;2022-07-23T12:02:21;9.93;;;3.75;;
44516;SDS011;30223;17.182;-96.766;2022-07-23T12:04:49;5.38;;;3.75;;
44516;SDS011;30223;17.182;-96.766;2022-07-23T12:07:27;7.15;;;3.33;;
44516;SDS011;30223;17.182;-96.766;2022-07-23T12:10:18;9.13;;;3.75;;
44516;SDS011;30223;17.182;-96.766;2022-07-23T12:12:48;6.65;;;3.30;;
44516;SDS011;30223;17.182;-96.766;2022-07-23T12:15:31;5.53;;;3.15;;
44516;SDS011;30223;17.182;-96.766;2022-07-23T12:18:03;7.20;;;3.60;;
44516;SDS011;30223;17.182;-96.766;2022-07-23T12:20:32;4.57;;;3.90;;
44516;SDS011;30223;17.182;-96.766;2022-07-23T12:23:02;7.03;;;3.10;;
44516;SDS011;30223;17.182;-96.766;2022-07-23T12:25:34;7.28;;;4.07;;
44516;SDS011;30223;17.182;-96.766;2022-07-23T12:28:04;6.47;;;3.83;;
44516;SDS011;30223;17.182;-96.766;2022-07-23T12:30:34;5.22;;;3.20;;
44516;SDS011;30223;17.182;-96.766;2022-07-23T12:33:05;13.10;;;4.75;;
44516;SDS011;30223;17.182;-96.766;2022-07-23T12:38:08;9.52;;;4.30;;
44516;SDS011;30223;17.182;-96.766;2022-07-23T12:40:40;7.00;;;4.80;;
44516;SDS011;30223;17.182;-96.766;2022-07-23T12:43:11;7.63;;;3.97;;
44516;SDS011;30223;17.182;-96.766;2022-07-23T12:46:08;10.00;;;4.65;;
44516;SDS011;30223;17.182;-96.766;2022-07-23T12:51:21;10.52;;;6.13;;
44516;SDS011;30223;17.182;-96.766;2022-07-23T12:53:50;6.53;;;4.35;;
44516;SDS011;30223;17.182;-96.766;2022-07-23T12:56:28;11.65;;;4.60;;
44516;SDS011;30223;17.182;-96.766;2022-07-23T12:59:08;7.47;;;4.32;;
44516;SDS011;30223;17.182;-96.766;2022-07-23T13:01:37;8.20;;;4.47;;
44516;SDS011;30223;17.182;-96.766;2022-07-23T13:04:12;6.53;;;4.40;;
44516;SDS011;30223;17.182;-96.766;2022-07-23T13:06:49;9.35;;;4.32;;
44516;SDS011;30223;17.182;-96.766;2022-07-23T13:09:19;6.07;;;3.50;;
44516;SDS011;30223;17.182;-96.766;2022-07-23T13:11:48;7.57;;;4.38;;
44516;SDS011;30223;17.182;-96.766;2022-07-23T13:14:16;10.48;;;4.60;;
44516;SDS011;30223;17.182;-96.766;2022-07-23T13:16:44;14.77;;;5.35;;
44516;SDS011;30223;17.182;-96.766;2022-07-23T13:19:12;6.83;;;4.97;;
44516;SDS011;30223;17.182;-96.766;2022-07-23T13:21:39;7.72;;;4.20;;
44516;SDS011;30223;17.182;-96.766;2022-07-23T13:24:09;7.47;;;4.25;;
44516;SDS011;30223;17.182;-96.766;2022-07-23T13:26:37;9.90;;;4.43;;
44516;SDS011;30223;17.182;-96.766;2022-07-23T13:29:04;8.77;;;4.85;;
44516;SDS011;30223;17.182;-96.766;2022-07-23T13:31:32;6.82;;;4.50;;
44516;SDS011;30223;17.182;-96.766;2022-07-23T13:33:59;10.80;;;4.32;;
44516;SDS011;30223;17.182;-96.766;2022-07-23T13:36:25;13.80;;;4.65;;
44516;SDS011;30223;17.182;-96.766;2022-07-23T13:38:52;8.98;;;5.10;;
44516;SDS011;30223;17.182;-96.766;2022-07-23T13:41:18;9.00;;;5.25;;
44516;SDS011;30223;17.182;-96.766;2022-07-23T13:43:45;8.20;;;4.60;;
44516;SDS011;30223;17.182;-96.766;2022-07-23T13:46:12;8.13;;;4.85;;
44516;SDS011;30223;17.182;-96.766;2022-07-23T13:48:39;7.63;;;4.57;;
44516;SDS011;30223;17.182;-96.766;2022-07-23T13:51:05;9.35;;;5.20;;
44516;SDS011;30223;17.182;-96.766;2022-07-23T13:53:33;8.43;;;4.82;;
44516;SDS011;30223;17.182;-96.766;2022-07-23T13:56:00;9.07;;;5.40;;
44516;SDS011;30223;17.182;-96.766;2022-07-23T13:58:26;6.30;;;4.55;;
44516;SDS011;30223;17.182;-96.766;2022-07-23T14:00:53;10.88;;;5.45;;
44516;SDS011;30223;17.182;-96.766;2022-07-23T14:03:20;12.68;;;6.53;;
44516;SDS011;30223;17.182;-96.766;2022-07-23T14:05:48;15.70;;;6.10;;
44516;SDS011;30223;17.182;-96.766;2022-07-23T14:08:16;10.43;;;4.80;;
44516;SDS011;30223;17.182;-96.766;2022-07-23T14:10:42;9.30;;;5.28;;
44516;SDS011;30223;17.182;-96.766;2022-07-23T14:13:09;11.90;;;6.38;;
44516;SDS011;30223;17.182;-96.766;2022-07-23T14:15:36;8.60;;;4.88;;
44516;SDS011;30223;17.182;-96.766;2022-07-23T14:18:05;13.43;;;5.55;;
44516;SDS011;30223;17.182;-96.766;2022-07-23T14:20:32;9.38;;;5.07;;
44516;SDS011;30223;17.182;-96.766;2022-07-23T14:22:59;9.43;;;4.65;;
44516;SDS011;30223;17.182;-96.766;2022-07-23T14:25:26;7.68;;;5.22;;
44516;SDS011;30223;17.182;-96.766;2022-07-23T14:27:53;9.77;;;4.22;;
44516;SDS011;30223;17.182;-96.766;2022-07-23T14:30:20;9.85;;;6.28;;
44516;SDS011;30223;17.182;-96.766;2022-07-23T14:32:48;6.03;;;4.30;;
44516;SDS011;30223;17.182;-96.766;2022-07-23T14:35:15;12.38;;;4.70;;
44516;SDS011;30223;17.182;-96.766;2022-07-23T14:37:42;5.95;;;5.03;;
44516;SDS011;30223;17.182;-96.766;2022-07-23T14:40:08;7.75;;;4.50;;
44516;SDS011;30223;17.182;-96.766;2022-07-23T14:42:35;8.70;;;4.78;;
44516;SDS011;30223;17.182;-96.766;2022-07-23T14:45:02;8.57;;;4.53;;
44516;SDS011;30223;17.182;-96.766;2022-07-23T14:47:30;14.02;;;5.57;;
44516;SDS011;30223;17.182;-96.766;2022-07-23T14:49:57;6.55;;;4.63;;
44516;SDS011;30223;17.182;-96.766;2022-07-23T14:52:23;9.68;;;5.50;;
44516;SDS011;30223;17.182;-96.766;2022-07-23T14:54:50;8.23;;;5.55;;
44516;SDS011;30223;17.182;-96.766;2022-07-23T14:57:16;12.18;;;6.32;;
44516;SDS011;30223;17.182;-96.766;2022-07-23T14:59:43;8.32;;;5.72;;
44516;SDS011;30223;17.182;-96.766;2022-07-23T15:02:10;6.82;;;4.57;;
44516;SDS011;30223;17.182;-96.766;2022-07-23T15:04:36;9.30;;;4.70;;
44516;SDS011;30223;17.182;-96.766;2022-07-23T15:07:03;9.30;;;5.70;;
44516;SDS011;30223;17.182;-96.766;2022-07-23T15:09:30;7.28;;;4.15;;
44516;SDS011;30223;17.182;-96.766;2022-07-23T15:11:57;6.97;;;5.45;;
44516;SDS011;30223;17.182;-96.766;2022-07-23T15:14:23;6.57;;;4.43;;
44516;SDS011;30223;17.182;-96.766;2022-07-23T15:16:50;8.95;;;4.40;;
44516;SDS011;30223;17.182;-96.766;2022-07-23T15:19:17;5.15;;;3.65;;
44516;SDS011;30223;17.182;-96.766;2022-07-23T15:21:43;7.38;;;4.55;;